createdAt,value
2018-10-09T00:00:10.659Z,82.30
2018-10-09T00:03:14.102Z,82.77
2018-10-09T00:06:17.554Z,82.59
2018-10-09T00:09:21.025Z,82.57
2018-10-09T00:12:24.548Z,82.72
2018-10-09T00:15:27.999Z,82.15
2018-10-09T00:18:31.450Z,81.59
2018-10-09T00:21:34.949Z,81.77
2018-10-09T00:24:38.514Z,80.91
2018-10-09T00:27:41.931Z,80.95
2018-10-09T00:30:45.321Z,80.23
2018-10-09T00:33:48.774Z,80.80
2018-10-09T00:36:52.232Z,81.20
2018-10-09T00:39:55.633Z,82.56
2018-10-09T00:42:59.028Z,83.78
2018-10-09T00:46:02.470Z,83.18
2018-10-09T00:49:06.587Z,82.76
2018-10-09T00:52:10.064Z,84.09
2018-10-09T00:55:13.559Z,84.15
2018-10-09T00:58:16.929Z,84.29
2018-10-09T01:01:20.468Z,83.15
2018-10-09T01:04:23.965Z,84.14
2018-10-09T01:07:27.366Z,84.34
2018-10-09T01:10:30.750Z,84.06
2018-10-09T01:13:34.235Z,83.08
2018-10-09T01:16:37.661Z,83.71
2018-10-09T01:19:41.110Z,83.52
2018-10-09T01:22:44.558Z,83.24
2018-10-09T01:25:47.976Z,84.29
2018-10-09T01:28:51.384Z,84.23
2018-10-09T01:31:54.830Z,84.36
2018-10-09T01:34:58.312Z,84.03
2018-10-09T01:38:01.892Z,84.21
2018-10-09T01:41:05.290Z,84.00
2018-10-09T01:44:08.714Z,83.91
2018-10-09T01:47:12.149Z,83.78
2018-10-09T01:50:15.579Z,83.54
2018-10-09T01:53:19.000Z,84.64
2018-10-09T01:56:22.392Z,84.56
2018-10-09T01:59:25.775Z,85.02
2018-10-09T02:02:29.137Z,84.91
2018-10-09T02:05:32.840Z,84.48
2018-10-09T02:08:36.292Z,84.37
2018-10-09T02:11:39.734Z,85.00
2018-10-09T02:14:43.172Z,85.49
2018-10-09T02:17:46.574Z,85.81
2018-10-09T02:20:49.968Z,85.31
2018-10-09T02:23:53.370Z,84.95
2018-10-09T02:26:56.790Z,84.17
2018-10-09T02:30:00.225Z,83.90
2018-10-09T02:33:03.802Z,84.38
2018-10-09T02:36:07.192Z,84.22
2018-10-09T02:39:11.737Z,85.02
2018-10-09T02:42:15.132Z,85.29
2018-10-09T02:45:18.506Z,85.95
2018-10-09T02:48:22.009Z,86.09
2018-10-09T02:51:25.585Z,85.19
2018-10-09T02:54:29.078Z,85.92
2018-10-09T02:57:32.615Z,85.80
2018-10-09T03:01:39.367Z,85.19
2018-10-09T03:04:42.898Z,84.77
2018-10-09T03:07:46.427Z,84.51
2018-10-09T03:10:49.894Z,84.28
2018-10-09T03:13:53.420Z,84.36
2018-10-09T03:16:56.937Z,84.13
2018-10-09T03:20:00.446Z,83.65
2018-10-09T03:23:03.990Z,83.87
2018-10-09T03:26:07.780Z,84.14
2018-10-09T03:29:11.271Z,84.10
2018-10-09T03:32:14.735Z,83.85
2018-10-09T03:35:18.209Z,84.42
2018-10-09T03:38:21.744Z,83.83
2018-10-09T03:41:25.244Z,83.74
2018-10-09T03:44:28.793Z,83.38
2018-10-09T03:47:32.257Z,83.83
2018-10-09T03:50:35.747Z,84.61
2018-10-09T03:53:39.286Z,84.87
2018-10-09T03:56:42.752Z,84.90
2018-10-09T03:59:46.258Z,85.43
2018-10-09T04:02:49.759Z,85.51
2018-10-09T04:05:53.256Z,85.45
2018-10-09T04:08:56.823Z,85.71
2018-10-09T04:12:00.300Z,85.30
2018-10-09T04:15:03.845Z,86.36
2018-10-09T04:18:07.348Z,86.47
2018-10-09T04:21:10.858Z,86.34
2018-10-09T04:24:14.378Z,86.88
2018-10-09T04:27:18.117Z,87.85
2018-10-09T04:30:21.635Z,87.26
2018-10-09T04:33:25.060Z,87.13
2018-10-09T04:36:28.586Z,86.74
2018-10-09T04:39:32.227Z,86.48
2018-10-09T04:42:35.687Z,87.20
2018-10-09T04:45:39.573Z,87.11
2018-10-09T04:48:43.024Z,86.86
2018-10-09T04:51:46.497Z,86.48
2018-10-09T04:54:50.020Z,86.56
2018-10-09T04:57:53.906Z,86.76
2018-10-09T05:00:57.312Z,86.86
2018-10-09T05:04:00.860Z,86.90
2018-10-09T05:07:04.349Z,87.37
2018-10-09T05:10:08.574Z,86.87
2018-10-09T05:13:12.093Z,86.24
2018-10-09T05:16:15.565Z,85.36
2018-10-09T05:19:19.051Z,86.06
2018-10-09T05:22:22.682Z,85.88
2018-10-09T05:25:26.278Z,85.80
2018-10-09T05:28:29.778Z,87.08
2018-10-09T05:31:33.617Z,88.21
2018-10-09T05:34:37.074Z,88.29
2018-10-09T05:37:40.617Z,88.13
2018-10-09T05:40:44.190Z,87.80
2018-10-09T05:43:47.698Z,87.37
2018-10-09T05:46:51.261Z,86.69
2018-10-09T05:49:54.882Z,86.14
2018-10-09T05:52:58.292Z,85.76
2018-10-09T05:56:01.700Z,86.03
2018-10-09T05:59:05.137Z,86.42
2018-10-09T06:02:09.165Z,86.46
2018-10-09T06:05:12.603Z,86.37
2018-10-09T06:08:16.036Z,86.15
2018-10-09T06:11:19.591Z,85.55
2018-10-09T06:14:23.085Z,85.72
2018-10-09T06:17:26.591Z,85.88
2018-10-09T06:20:30.030Z,85.88
2018-10-09T06:23:33.431Z,86.52
2018-10-09T06:26:36.824Z,86.80
2018-10-09T06:29:40.435Z,86.21
2018-10-09T06:32:44.666Z,86.02
2018-10-09T06:35:49.159Z,85.27
2018-10-09T06:38:52.510Z,84.58
2018-10-09T06:41:55.941Z,84.47
2018-10-09T06:44:59.436Z,84.85
2018-10-09T06:48:02.858Z,86.34
2018-10-09T06:51:06.389Z,87.01
2018-10-09T06:54:09.935Z,87.68
2018-10-09T06:57:13.365Z,87.49
2018-10-09T07:00:16.832Z,87.92
2018-10-09T07:03:20.289Z,87.16
2018-10-09T07:06:23.807Z,87.00
2018-10-09T07:09:27.391Z,85.46
2018-10-09T07:12:30.706Z,85.87
2018-10-09T07:15:34.170Z,85.66
2018-10-09T07:18:37.582Z,84.88
2018-10-09T07:21:40.976Z,84.28
2018-10-09T07:24:44.416Z,84.16
2018-10-09T07:27:47.968Z,83.62
2018-10-09T07:30:51.602Z,82.88
2018-10-09T07:33:55.063Z,82.71
2018-10-09T07:36:58.546Z,81.80
2018-10-09T07:40:02.058Z,81.63
2018-10-09T07:43:05.522Z,81.24
2018-10-09T07:46:08.950Z,80.66
2018-10-09T07:49:12.578Z,80.53
2018-10-09T07:52:16.053Z,80.59
2018-10-09T07:55:19.544Z,79.75
2018-10-09T07:58:22.969Z,79.39
2018-10-09T08:01:26.433Z,79.41
2018-10-09T08:04:29.853Z,79.31
2018-10-09T08:07:33.347Z,79.42
2018-10-09T08:10:36.951Z,79.08
2018-10-09T08:13:40.498Z,78.49
2018-10-09T08:16:45.051Z,78.76
2018-10-09T08:19:48.516Z,78.21
2018-10-09T08:22:52.148Z,77.77
2018-10-09T08:25:55.591Z,77.05
2018-10-09T08:28:59.119Z,77.06
2018-10-09T08:32:02.626Z,76.73
2018-10-09T08:35:06.433Z,76.35
2018-10-09T08:38:09.874Z,75.49
2018-10-09T08:41:13.271Z,75.03
2018-10-09T08:44:16.695Z,74.93
2018-10-09T08:47:20.116Z,74.87
2018-10-09T08:50:23.623Z,74.33
2018-10-09T08:53:26.984Z,74.26
2018-10-09T08:56:30.384Z,74.02
2018-10-09T08:59:33.889Z,73.99
2018-10-09T09:02:37.365Z,74.09
2018-10-09T09:05:40.766Z,73.73
2018-10-09T09:08:44.285Z,73.35
2018-10-09T09:11:47.693Z,72.35
2018-10-09T09:14:51.229Z,73.01
2018-10-09T09:17:54.673Z,73.08
2018-10-09T09:20:58.269Z,72.26
2018-10-09T09:24:02.334Z,72.03
2018-10-09T09:27:05.912Z,71.58
2018-10-09T09:30:09.334Z,72.31
2018-10-09T09:33:12.752Z,72.48
2018-10-09T09:36:16.283Z,71.99
2018-10-09T09:39:19.631Z,71.08
2018-10-09T09:42:23.017Z,70.76
2018-10-09T09:45:26.512Z,70.97
2018-10-09T09:48:29.964Z,69.49
2018-10-09T09:51:33.401Z,70.43
2018-10-09T09:54:37.000Z,70.59
2018-10-09T09:57:40.549Z,69.72
2018-10-09T10:00:49.309Z,68.69
2018-10-09T10:03:52.784Z,67.53
2018-10-09T10:06:56.258Z,67.99
2018-10-09T10:09:59.580Z,66.86
2018-10-09T10:13:03.122Z,67.56
2018-10-09T10:16:06.721Z,66.58
2018-10-09T10:19:10.324Z,66.99
2018-10-09T10:22:13.980Z,66.84
2018-10-09T10:25:17.482Z,66.46
2018-10-09T10:28:21.004Z,65.26
2018-10-09T10:31:24.493Z,64.26
2018-10-09T10:34:27.982Z,62.87
2018-10-09T10:37:31.417Z,63.74
2018-10-09T10:40:34.909Z,63.23
2018-10-09T10:43:38.396Z,62.13
2018-10-09T10:46:42.528Z,61.60
2018-10-09T10:49:46.030Z,61.90
2018-10-09T10:52:49.496Z,62.12
2018-10-09T10:55:53.335Z,61.87
2018-10-09T10:58:56.812Z,61.64
2018-10-09T11:02:00.318Z,62.08
2018-10-09T11:05:03.849Z,60.95
2018-10-09T11:08:08.445Z,61.37
2018-10-09T11:11:11.979Z,60.71
2018-10-09T11:14:16.796Z,59.52
2018-10-09T11:17:20.379Z,59.99
2018-10-09T11:20:23.761Z,60.77
2018-10-09T11:23:27.811Z,61.94
2018-10-09T11:26:31.375Z,60.27
2018-10-09T11:29:34.950Z,59.45
2018-10-09T11:32:38.562Z,59.70
2018-10-09T11:35:41.970Z,59.53
2018-10-09T11:38:45.514Z,59.84
2018-10-09T11:41:49.075Z,59.09
2018-10-09T11:44:52.533Z,59.67
2018-10-09T11:47:56.045Z,59.55
2018-10-09T11:50:59.600Z,59.13
2018-10-09T11:54:03.119Z,59.20
2018-10-09T11:57:06.698Z,60.06
2018-10-09T12:00:10.201Z,60.31
2018-10-09T12:03:13.758Z,60.45
2018-10-09T12:06:17.714Z,60.68
2018-10-09T12:09:21.215Z,60.41
2018-10-09T12:12:24.803Z,59.99
2018-10-09T12:15:28.377Z,59.79
2018-10-09T12:18:32.020Z,60.05
2018-10-09T12:21:36.074Z,60.42
2018-10-09T12:24:39.607Z,60.86
2018-10-09T12:27:43.265Z,59.92
2018-10-09T12:30:47.731Z,60.13
2018-10-09T12:33:51.286Z,60.42
2018-10-09T12:36:54.784Z,60.20
2018-10-09T12:39:58.245Z,60.12
2018-10-09T12:43:01.728Z,60.43
2018-10-09T12:46:05.135Z,60.29
2018-10-09T12:49:08.953Z,60.23
2018-10-09T12:52:12.457Z,60.10
2018-10-09T12:55:16.034Z,60.00
2018-10-09T12:58:19.572Z,59.65
2018-10-09T13:01:23.162Z,59.62
2018-10-09T13:04:26.540Z,59.47
2018-10-09T13:07:29.929Z,59.69
2018-10-09T13:10:33.365Z,58.39
2018-10-09T13:13:36.757Z,58.07
2018-10-09T13:16:40.111Z,58.26
2018-10-09T13:19:43.528Z,57.97
2018-10-09T13:22:46.985Z,57.92
2018-10-09T13:25:50.316Z,57.84
2018-10-09T13:28:53.740Z,57.66
2018-10-09T13:31:57.141Z,58.09
2018-10-09T13:35:00.528Z,58.20
2018-10-09T13:38:04.022Z,57.58
2018-10-09T13:41:07.513Z,58.06
2018-10-09T13:44:10.964Z,57.07
2018-10-09T13:47:14.395Z,56.93
2018-10-09T13:50:17.788Z,57.30
2018-10-09T13:53:21.143Z,56.43
2018-10-09T13:56:24.635Z,56.56
2018-10-09T13:59:28.018Z,56.17
2018-10-09T14:02:31.428Z,56.01
2018-10-09T14:05:34.846Z,56.26
2018-10-09T14:08:38.220Z,56.29
2018-10-09T14:11:42.655Z,56.09
2018-10-09T14:14:46.045Z,55.75
2018-10-09T14:17:49.465Z,54.99
2018-10-09T14:20:52.877Z,54.47
2018-10-09T14:23:56.393Z,54.67
2018-10-09T14:26:59.762Z,54.94
2018-10-09T14:30:03.232Z,54.76
2018-10-09T14:33:06.761Z,54.81
2018-10-09T14:36:10.181Z,55.17
2018-10-09T14:39:13.549Z,55.54
2018-10-09T14:42:17.506Z,54.97
2018-10-09T14:45:21.039Z,53.58
2018-10-09T14:48:24.443Z,53.22
2018-10-09T14:51:27.869Z,53.56
2018-10-09T14:54:31.375Z,53.42
2018-10-09T14:57:34.867Z,53.37
2018-10-09T15:00:38.364Z,53.52
2018-10-09T15:03:41.896Z,53.56
2018-10-09T15:06:45.388Z,54.07
2018-10-09T15:09:48.980Z,53.99
2018-10-09T15:12:52.512Z,54.38
2018-10-09T15:15:56.068Z,54.71
2018-10-09T15:18:59.582Z,54.60
2018-10-09T15:22:03.012Z,55.11
2018-10-09T15:25:06.526Z,55.27
2018-10-09T15:28:10.185Z,55.14
2018-10-09T15:31:13.667Z,55.46
2018-10-09T15:34:17.112Z,55.05
2018-10-09T15:37:20.692Z,55.03
2018-10-09T15:40:24.162Z,55.50
2018-10-09T15:43:27.605Z,55.91
2018-10-09T15:46:31.119Z,56.58
2018-10-09T15:49:34.624Z,57.18
2018-10-09T15:52:38.171Z,57.65
2018-10-09T15:55:41.626Z,57.75
2018-10-09T15:58:45.041Z,57.82
2018-10-09T16:01:48.675Z,58.04
2018-10-09T16:04:52.238Z,58.34
2018-10-09T16:07:55.659Z,58.66
2018-10-09T16:10:59.332Z,59.17
2018-10-09T16:14:03.154Z,59.27
2018-10-09T16:17:07.124Z,59.39
2018-10-09T16:20:10.897Z,59.77
2018-10-09T16:23:14.481Z,60.39
2018-10-09T16:26:18.007Z,60.74
2018-10-09T16:29:21.483Z,60.82
2018-10-09T16:32:25.037Z,61.39
2018-10-09T16:35:28.365Z,62.07
2018-10-09T16:38:31.787Z,62.80
2018-10-09T16:41:35.189Z,63.72
2018-10-09T16:44:38.668Z,64.10
2018-10-09T16:47:42.083Z,64.40
2018-10-09T16:50:45.492Z,65.16
2018-10-09T16:53:48.993Z,65.94
2018-10-09T16:56:52.397Z,66.60
2018-10-09T16:59:55.911Z,66.56
2018-10-09T17:02:59.434Z,67.01
2018-10-09T17:06:02.902Z,67.40
2018-10-09T17:09:08.941Z,67.66
2018-10-09T17:12:12.364Z,67.86
2018-10-09T17:15:15.904Z,67.39
2018-10-09T17:18:20.322Z,67.24
2018-10-09T17:21:23.786Z,67.39
2018-10-09T17:24:27.228Z,67.58
2018-10-09T17:27:30.731Z,67.92
2018-10-09T17:30:34.204Z,68.60
2018-10-09T17:33:37.823Z,68.78
2018-10-09T17:36:41.745Z,69.28
2018-10-09T17:39:45.222Z,69.52
2018-10-09T17:42:48.616Z,69.68
2018-10-09T17:45:52.017Z,70.41
2018-10-09T17:48:55.495Z,70.83
2018-10-09T17:51:58.889Z,70.81
2018-10-09T17:55:02.328Z,70.55
2018-10-09T17:58:05.754Z,70.85
2018-10-09T18:01:09.226Z,71.15
2018-10-09T18:04:12.627Z,71.75
2018-10-09T18:07:16.805Z,71.67
2018-10-09T18:10:20.304Z,71.70
2018-10-09T18:13:23.760Z,71.73
2018-10-09T18:16:27.160Z,71.67
2018-10-09T18:19:30.566Z,72.01
2018-10-09T18:22:34.004Z,72.04
2018-10-09T18:25:37.475Z,72.56
2018-10-09T18:28:40.915Z,72.77
2018-10-09T18:31:44.422Z,72.68
2018-10-09T18:34:48.009Z,72.88
2018-10-09T18:37:51.487Z,72.99
2018-10-09T18:40:55.281Z,73.68
2018-10-09T18:43:58.569Z,73.60
2018-10-09T18:47:02.060Z,73.62
2018-10-09T18:50:05.599Z,73.73
2018-10-09T18:53:09.179Z,73.54
2018-10-09T18:56:12.609Z,73.71
2018-10-09T18:59:15.968Z,74.13
2018-10-09T19:02:19.362Z,73.98
2018-10-09T19:05:23.238Z,74.10
2018-10-09T19:08:26.758Z,74.73
2018-10-09T19:11:30.226Z,74.18
2018-10-09T19:14:33.759Z,74.46
2018-10-09T19:17:37.245Z,74.24
2018-10-09T19:20:40.693Z,74.25
2018-10-09T19:23:44.184Z,74.02
2018-10-09T19:26:47.602Z,74.07
2018-10-09T19:29:51.153Z,73.53
2018-10-09T19:32:54.582Z,73.64
2018-10-09T19:35:58.104Z,73.67
2018-10-09T19:39:01.643Z,73.56
2018-10-09T19:42:05.170Z,73.60
2018-10-09T19:45:08.649Z,73.96
2018-10-09T19:48:12.145Z,74.02
2018-10-09T19:51:15.603Z,74.02
2018-10-09T19:54:19.107Z,74.31
2018-10-09T19:57:22.627Z,73.93
2018-10-09T20:00:26.117Z,74.19
2018-10-09T20:03:29.574Z,74.23
2018-10-09T20:06:33.355Z,75.18
2018-10-09T20:09:37.032Z,75.20
2018-10-09T20:12:40.560Z,75.55
2018-10-09T20:15:44.100Z,75.16
2018-10-09T20:18:47.669Z,75.57
2018-10-09T20:21:51.148Z,75.47
2018-10-09T20:24:54.746Z,75.70
2018-10-09T20:27:58.280Z,75.46
2018-10-09T20:31:02.132Z,75.20
2018-10-09T20:34:05.735Z,75.87
2018-10-09T20:37:09.278Z,75.86
2018-10-09T20:40:12.901Z,75.66
2018-10-09T20:43:16.450Z,75.49
2018-10-09T20:46:20.117Z,75.22
2018-10-09T20:49:23.598Z,75.49
2018-10-09T20:52:27.103Z,75.38
2018-10-09T20:55:30.615Z,75.25
2018-10-09T20:58:34.176Z,75.39
2018-10-09T21:01:37.920Z,75.56
2018-10-09T21:04:41.540Z,75.55
2018-10-09T21:07:45.048Z,75.56
2018-10-09T21:10:48.631Z,75.19
2018-10-09T21:13:52.154Z,75.58
2018-10-09T21:16:55.964Z,76.03
2018-10-09T21:19:59.736Z,75.43
2018-10-09T21:23:04.642Z,75.97
2018-10-09T21:26:08.312Z,75.79
2018-10-09T21:29:11.908Z,76.02
2018-10-09T21:32:15.425Z,76.20
2018-10-09T21:35:19.005Z,76.34
2018-10-09T21:38:22.547Z,75.95
2018-10-09T21:41:26.078Z,76.31
2018-10-09T21:44:29.536Z,76.52
2018-10-09T21:47:32.985Z,76.61
2018-10-09T21:50:36.641Z,76.32
2018-10-09T21:53:40.451Z,76.64
2018-10-09T21:56:44.006Z,76.04
2018-10-09T21:59:48.090Z,76.36
2018-10-09T22:02:51.588Z,76.59
2018-10-09T22:05:55.255Z,76.51
2018-10-09T22:08:58.858Z,77.42
2018-10-09T22:12:02.399Z,77.06
2018-10-09T22:15:08.095Z,77.43
2018-10-09T22:18:11.516Z,77.35
2018-10-09T22:21:15.197Z,77.65
2018-10-09T22:24:18.756Z,77.24
2018-10-09T22:27:22.488Z,77.58
2018-10-09T22:30:26.059Z,77.74
2018-10-09T22:33:29.592Z,77.40
2018-10-09T22:36:33.498Z,77.82
2018-10-09T22:39:36.998Z,78.14
2018-10-09T22:42:41.533Z,77.40
2018-10-09T22:45:45.047Z,77.53
2018-10-09T22:48:48.513Z,77.59
2018-10-09T22:51:53.055Z,77.53
2018-10-09T22:54:56.557Z,77.38
2018-10-09T22:58:00.056Z,77.80
2018-10-09T23:01:03.542Z,78.47
2018-10-09T23:04:07.211Z,78.38
2018-10-09T23:07:10.844Z,78.65
2018-10-09T23:10:14.389Z,77.57
2018-10-09T23:13:17.999Z,77.60
2018-10-09T23:16:21.567Z,77.39
2018-10-09T23:19:25.067Z,79.04
2018-10-09T23:22:28.582Z,79.38
2018-10-09T23:25:32.072Z,79.92
2018-10-09T23:28:35.603Z,79.87
2018-10-09T23:31:39.142Z,80.01
2018-10-09T23:34:42.700Z,79.80
2018-10-09T23:37:46.202Z,80.12
2018-10-09T23:40:49.735Z,80.10
2018-10-09T23:43:53.323Z,79.75
2018-10-09T23:46:56.823Z,79.11
2018-10-09T23:50:00.378Z,79.43
2018-10-09T23:53:04.056Z,79.72
2018-10-09T23:56:07.631Z,79.68
2018-10-09T23:59:11.187Z,79.55
